Time;durP1;ratioP1;P1;durP2;ratioP2;P2;SDS_P1;SDS_P2;PMS_P1;PMS_P2;Temp;Humidity;BMP_temperature;BMP_pressure;BME280_temperature;BME280_humidity;BME280_pressure;Samples;Min_cycle;Max_cycle;Signal;HPM_P1;HPM_P2
2021/06/19 00:01:11;;;;;;;4.57;2.50;;;24.70;75.00;;;;;;5050489;28;20885;-73
2021/06/19 00:03:39;;;;;;;12.63;3.60;;;24.60;75.30;;;;;;5052228;28;20427;-73
2021/06/19 00:06:06;;;;;;;3.07;2.77;;;24.50;75.40;;;;;;5021456;28;20460;-74
2021/06/19 00:08:33;;;;;;;5.83;3.13;;;24.50;76.00;;;;;;5029878;28;20531;-72
2021/06/19 00:11:00;;;;;;;6.30;3.17;;;24.50;76.30;;;;;;5031641;28;20803;-73
2021/06/19 00:13:27;;;;;;;7.00;3.00;;;24.40;77.30;;;;;;5032189;28;20428;-73
2021/06/19 00:15:53;;;;;;;4.80;3.03;;;24.30;77.90;;;;;;5061530;28;20445;-73
2021/06/19 00:18:23;;;;;;;4.20;3.20;;;24.20;77.70;;;;;;5031615;28;21208;-75
2021/06/19 00:20:51;;;;;;;5.23;3.10;;;24.30;77.00;;;;;;5031190;28;20460;-73
2021/06/19 00:23:18;;;;;;;2.90;2.30;;;24.30;76.60;;;;;;5030319;28;20449;-73
2021/06/19 00:25:45;;;;;;;4.03;2.77;;;24.20;76.40;;;;;;5026751;28;20560;-72
2021/06/19 00:28:12;;;;;;;4.67;3.47;;;24.30;76.40;;;;;;5012008;28;20550;-74
2021/06/19 00:30:39;;;;;;;3.63;2.80;;;24.30;76.50;;;;;;5020968;28;20463;-72
2021/06/19 00:33:06;;;;;;;3.03;2.33;;;24.20;76.10;;;;;;5031956;28;20431;-72
2021/06/19 00:35:33;;;;;;;6.63;2.37;;;24.20;76.50;;;;;;5031264;28;20464;-72
2021/06/19 00:38:00;;;;;;;3.40;3.10;;;24.20;75.80;;;;;;5030381;28;20465;-74
2021/06/19 00:40:27;;;;;;;4.23;2.60;;;24.20;76.10;;;;;;5031268;28;20461;-73
2021/06/19 00:42:55;;;;;;;2.67;2.43;;;24.20;75.80;;;;;;5063644;28;20426;-73
2021/06/19 00:45:24;;;;;;;12.23;3.73;;;24.10;76.40;;;;;;5031854;28;20433;-73
2021/06/19 00:47:54;;;;;;;2.80;1.77;;;24.10;76.20;;;;;;5030362;28;20466;-74
2021/06/19 00:50:22;;;;;;;3.20;2.27;;;24.10;76.40;;;;;;5030104;28;20463;-73
2021/06/19 00:52:49;;;;;;;3.83;2.57;;;24.10;76.80;;;;;;5029989;28;20449;-72
2021/06/19 00:55:17;;;;;;;4.17;2.37;;;23.90;77.20;;;;;;5046727;28;20841;-73
2021/06/19 00:57:45;;;;;;;2.93;2.63;;;23.90;77.70;;;;;;5031086;28;20430;-74
2021/06/19 01:00:12;;;;;;;2.50;2.30;;;23.90;77.40;;;;;;5029287;28;20999;-73
2021/06/19 01:02:40;;;;;;;3.53;2.10;;;23.80;77.40;;;;;;5030241;28;20573;-72
2021/06/19 01:05:09;;;;;;;3.10;2.17;;;23.70;78.00;;;;;;5042787;28;20779;-72
2021/06/19 01:07:37;;;;;;;3.47;2.13;;;23.70;78.10;;;;;;5037852;28;21011;-74
2021/06/19 01:10:05;;;;;;;4.93;1.97;;;23.70;78.10;;;;;;5029507;28;20447;-72
2021/06/19 01:12:32;;;;;;;2.80;1.87;;;23.60;78.40;;;;;;5031537;28;20986;-74
2021/06/19 01:15:00;;;;;;;3.07;2.50;;;23.50;78.40;;;;;;5030312;28;20439;-73
2021/06/19 01:17:26;;;;;;;3.00;1.80;;;23.50;79.10;;;;;;5029773;28;20472;-73
2021/06/19 01:20:06;;;;;;;8.63;2.20;;;23.40;80.30;;;;;;5031225;28;20565;-73
2021/06/19 01:22:35;;;;;;;2.47;2.13;;;23.40;79.60;;;;;;5030966;28;20518;-73
2021/06/19 01:25:05;;;;;;;2.20;2.00;;;23.30;80.70;;;;;;5031691;28;20517;-73
2021/06/19 01:27:32;;;;;;;2.10;1.53;;;23.30;80.50;;;;;;5032283;28;20453;-73
2021/06/19 01:30:01;;;;;;;3.17;2.00;;;23.20;81.10;;;;;;5034204;28;20886;-73
2021/06/19 01:32:31;;;;;;;5.00;2.30;;;23.10;82.00;;;;;;5033759;28;20529;-72
2021/06/19 01:34:59;;;;;;;2.90;2.00;;;23.00;82.80;;;;;;5035085;28;20524;-73
2021/06/19 01:37:27;;;;;;;3.57;2.70;;;22.80;84.20;;;;;;5047949;28;20473;-73
2021/06/19 01:40:09;;;;;;;2.10;1.83;;;22.70;85.50;;;;;;5033583;28;21041;-73
2021/06/19 01:42:45;;;;;;;3.73;2.27;;;22.70;86.40;;;;;;5013778;28;20527;-72
2021/06/19 01:45:17;;;;;;;2.70;1.93;;;22.60;87.30;;;;;;5030212;28;20424;-73
2021/06/19 01:47:45;;;;;;;4.53;2.60;;;22.50;88.50;;;;;;5031103;28;20436;-74
2021/06/19 01:50:17;;;;;;;3.03;2.00;;;22.40;89.90;;;;;;5051402;28;20440;-73
2021/06/19 01:52:45;;;;;;;3.07;1.87;;;22.40;89.50;;;;;;5040909;28;20463;-73
2021/06/19 01:55:15;;;;;;;2.70;1.90;;;22.30;90.10;;;;;;5033285;28;20444;-73
2021/06/19 01:57:43;;;;;;;6.53;2.73;;;22.30;90.30;;;;;;5033089;28;20935;-74
2021/06/19 02:00:36;;;;;;;6.13;2.50;;;22.20;90.40;;;;;;5032548;28;20460;-73
2021/06/19 02:03:06;;;;;;;2.80;1.93;;;22.00;91.20;;;;;;4996505;28;20998;-73
2021/06/19 02:05:36;;;;;;;2.17;1.70;;;22.00;91.60;;;;;;5007982;28;20506;-73
2021/06/19 02:08:06;;;;;;;3.20;2.10;;;22.00;91.40;;;;;;5028575;28;20468;-74
2021/06/19 02:10:37;;;;;;;3.60;1.97;;;21.90;91.90;;;;;;5033862;28;20452;-73
2021/06/19 02:13:06;;;;;;;3.53;1.90;;;21.90;91.90;;;;;;5033086;28;20432;-73
2021/06/19 02:15:38;;;;;;;4.87;2.10;;;21.90;91.90;;;;;;5031430;28;20463;-73
2021/06/19 02:18:05;;;;;;;3.13;1.80;;;21.80;92.10;;;;;;5034051;28;20506;-74
2021/06/19 02:20:33;;;;;;;2.80;1.97;;;21.70;92.50;;;;;;5033468;28;20464;-73
2021/06/19 02:23:00;;;;;;;2.00;1.73;;;21.70;92.80;;;;;;5031950;28;20454;-73
2021/06/19 02:25:29;;;;;;;1.90;1.70;;;21.60;93.10;;;;;;5036266;28;20470;-72
2021/06/19 02:28:06;;;;;;;2.23;1.70;;;21.60;93.40;;;;;;5052365;28;20451;-74
2021/06/19 02:30:41;;;;;;;4.00;2.60;;;21.60;93.70;;;;;;5052494;28;20462;-73
2021/06/19 02:33:08;;;;;;;5.10;2.00;;;21.60;93.70;;;;;;5053972;28;20460;-73
2021/06/19 02:35:38;;;;;;;3.00;1.80;;;21.70;93.60;;;;;;5052143;28;20532;-73
2021/06/19 02:38:06;;;;;;;1.93;1.50;;;21.80;93.40;;;;;;5051414;28;20554;-73
2021/06/19 02:40:35;;;;;;;5.90;2.17;;;21.90;93.20;;;;;;5051990;28;20516;-73
2021/06/19 02:43:02;;;;;;;4.93;2.97;;;22.00;92.90;;;;;;5052434;28;20427;-73
2021/06/19 02:45:29;;;;;;;2.50;1.60;;;22.10;92.50;;;;;;5047715;28;20469;-73
2021/06/19 02:47:57;;;;;;;3.17;1.60;;;22.20;92.40;;;;;;5014958;28;20448;-74
2021/06/19 02:50:29;;;;;;;2.13;1.70;;;22.20;92.00;;;;;;5015784;28;20452;-73
2021/06/19 02:52:57;;;;;;;2.90;1.70;;;22.30;92.10;;;;;;5031925;28;20443;-74
2021/06/19 02:55:27;;;;;;;2.13;1.80;;;22.30;92.00;;;;;;5031805;28;20482;-72
2021/06/19 02:57:54;;;;;;;2.20;1.83;;;22.30;92.10;;;;;;5033152;28;20448;-74
2021/06/19 03:00:23;;;;;;;2.10;1.90;;;22.30;92.00;;;;;;5063686;28;20445;-72
2021/06/19 03:02:51;;;;;;;2.17;1.50;;;22.20;92.10;;;;;;5033117;28;20430;-73
2021/06/19 03:05:22;;;;;;;2.70;2.03;;;22.10;92.30;;;;;;5032821;28;20519;-74
2021/06/19 03:07:49;;;;;;;3.40;1.50;;;22.10;92.30;;;;;;5031197;28;20451;-74
2021/06/19 03:10:38;;;;;;;2.17;1.80;;;22.10;92.30;;;;;;5031533;28;20459;-74
2021/06/19 03:13:05;;;;;;;4.50;1.90;;;22.10;92.30;;;;;;5048566;28;20460;-73
2021/06/19 03:15:32;;;;;;;1.70;1.40;;;22.00;92.70;;;;;;5031559;28;20957;-73
2021/06/19 03:18:00;;;;;;;2.97;1.80;;;21.90;93.00;;;;;;5063351;28;20467;-73
2021/06/19 03:20:27;;;;;;;1.93;1.70;;;21.90;93.00;;;;;;5032184;28;20518;-73
2021/06/19 03:22:57;;;;;;;1.97;1.70;;;21.80;93.10;;;;;;5031920;28;20468;-73
2021/06/19 03:25:29;;;;;;;3.70;1.80;;;21.80;93.00;;;;;;5047343;28;20452;-73
2021/06/19 03:27:59;;;;;;;1.80;1.50;;;21.80;93.20;;;;;;5032611;28;20801;-74
2021/06/19 03:30:28;;;;;;;2.07;1.50;;;21.80;93.50;;;;;;5034192;28;21045;-73
2021/06/19 03:32:55;;;;;;;2.23;1.30;;;21.80;93.40;;;;;;5052853;28;20419;-73
2021/06/19 03:35:22;;;;;;;2.03;1.53;;;21.80;93.30;;;;;;5052325;28;20458;-74
2021/06/19 03:37:51;;;;;;;2.43;1.60;;;21.70;94.10;;;;;;5050559;28;20445;-72
2021/06/19 03:40:19;;;;;;;2.40;1.77;;;21.70;93.70;;;;;;5051941;28;20550;-74
2021/06/19 03:42:49;;;;;;;2.30;1.67;;;21.60;93.90;;;;;;5052714;28;20424;-73
2021/06/19 03:45:17;;;;;;;2.67;1.43;;;21.60;94.20;;;;;;5049570;28;20451;-72
2021/06/19 03:47:45;;;;;;;1.90;1.70;;;21.60;94.10;;;;;;5051064;28;20419;-73
2021/06/19 03:50:15;;;;;;;2.17;1.70;;;21.60;94.40;;;;;;5034159;28;20477;-74
2021/06/19 03:52:51;;;;;;;2.23;1.70;;;21.60;94.30;;;;;;5035050;28;20963;-73
2021/06/19 03:55:18;;;;;;;3.13;2.20;;;21.70;94.30;;;;;;5051733;28;20455;-73
2021/06/19 03:57:46;;;;;;;2.53;2.20;;;21.80;94.30;;;;;;5050714;28;20485;-74
2021/06/19 04:00:18;;;;;;;2.10;1.90;;;21.80;94.30;;;;;;5050382;28;20872;-74
2021/06/19 04:02:47;;;;;;;2.77;1.80;;;21.80;94.30;;;;;;5052432;28;20455;-74
2021/06/19 04:05:16;;;;;;;1.80;1.30;;;21.90;94.10;;;;;;5050363;28;20978;-73
2021/06/19 04:07:46;;;;;;;5.20;1.80;;;21.90;94.30;;;;;;5049226;28;20451;-74
2021/06/19 04:10:14;;;;;;;5.23;1.70;;;21.90;94.30;;;;;;5050947;28;20452;-73
2021/06/19 04:12:43;;;;;;;3.97;1.80;;;21.90;94.40;;;;;;5052130;28;20447;-73
2021/06/19 04:15:11;;;;;;;2.33;1.90;;;22.00;94.20;;;;;;5033373;28;20498;-73
2021/06/19 04:17:39;;;;;;;2.57;1.80;;;21.90;94.30;;;;;;5046285;28;20471;-74
2021/06/19 04:20:11;;;;;;;4.50;2.07;;;21.90;94.10;;;;;;5032980;28;20425;-73
2021/06/19 04:22:38;;;;;;;3.53;1.80;;;22.00;94.30;;;;;;5042494;28;20431;-74
2021/06/19 04:25:07;;;;;;;3.30;2.00;;;22.00;94.30;;;;;;5051396;28;20430;-73
2021/06/19 04:27:40;;;;;;;2.70;1.93;;;22.00;94.20;;;;;;5051360;28;20442;-73
2021/06/19 04:30:09;;;;;;;2.93;1.63;;;22.00;94.30;;;;;;5052253;28;21011;-74
2021/06/19 04:32:36;;;;;;;2.03;1.57;;;22.00;94.00;;;;;;5050473;28;20953;-73
2021/06/19 04:35:04;;;;;;;2.50;1.57;;;22.10;94.00;;;;;;5051194;28;20420;-73
2021/06/19 04:37:31;;;;;;;3.53;1.50;;;22.20;93.80;;;;;;5039899;28;20436;-73
2021/06/19 04:40:16;;;;;;;4.03;1.93;;;22.20;93.50;;;;;;5014233;28;20482;-74
2021/06/19 04:42:47;;;;;;;2.17;1.97;;;22.20;93.60;;;;;;5030477;28;20452;-73
2021/06/19 04:45:14;;;;;;;2.57;1.83;;;22.30;93.90;;;;;;5035166;28;20945;-74
2021/06/19 04:47:41;;;;;;;2.50;1.90;;;22.20;93.80;;;;;;5051119;28;20426;-74
2021/06/19 04:50:10;;;;;;;2.03;1.67;;;22.30;93.60;;;;;;5051122;28;20523;-74
2021/06/19 04:52:40;;;;;;;3.00;2.07;;;22.30;93.50;;;;;;5050524;28;20442;-73
2021/06/19 04:55:10;;;;;;;2.63;1.80;;;22.40;93.50;;;;;;5051649;28;20451;-74
2021/06/19 04:57:39;;;;;;;2.57;1.77;;;22.40;93.10;;;;;;5049714;28;20435;-72
2021/06/19 05:00:08;;;;;;;2.17;1.80;;;22.40;93.20;;;;;;5032741;28;20517;-74
2021/06/19 05:02:35;;;;;;;2.70;2.10;;;22.40;92.90;;;;;;5053073;28;20428;-73
2021/06/19 05:05:03;;;;;;;1.83;1.43;;;22.50;92.70;;;;;;5055667;28;20423;-73
2021/06/19 05:07:33;;;;;;;3.03;2.00;;;22.50;92.10;;;;;;5059936;28;20474;-74
2021/06/19 05:10:05;;;;;;;2.50;1.77;;;22.50;92.80;;;;;;5054064;28;20432;-74
2021/06/19 05:12:33;;;;;;;2.93;1.63;;;22.50;92.40;;;;;;5053989;28;20920;-74
2021/06/19 05:15:03;;;;;;;1.87;1.40;;;22.50;93.00;;;;;;5053097;28;20905;-73
2021/06/19 05:17:30;;;;;;;2.13;1.53;;;22.60;92.10;;;;;;5053562;28;20447;-73
2021/06/19 05:19:58;;;;;;;2.23;1.47;;;22.50;92.00;;;;;;5037453;28;20420;-73
2021/06/19 05:22:25;;;;;;;1.70;1.37;;;22.60;91.60;;;;;;5053654;28;20521;-72
2021/06/19 05:24:51;;;;;;;1.83;1.60;;;22.60;91.40;;;;;;5037332;28;20431;-73
2021/06/19 05:27:18;;;;;;;3.80;3.07;;;22.60;91.40;;;;;;5053474;28;21045;-73
2021/06/19 05:29:45;;;;;;;3.40;2.90;;;22.60;91.60;;;;;;5036974;28;20496;-73
2021/06/19 05:32:12;;;;;;;2.93;2.30;;;22.60;91.20;;;;;;5054712;28;20463;-73
2021/06/19 05:34:41;;;;;;;2.70;2.13;;;22.70;91.20;;;;;;5053735;28;20944;-73
2021/06/19 05:37:13;;;;;;;3.67;2.27;;;22.60;91.30;;;;;;5036502;28;21147;-74
2021/06/19 05:39:40;;;;;;;2.57;2.23;;;22.60;91.20;;;;;;5054785;28;20522;-73
2021/06/19 05:42:07;;;;;;;2.03;1.83;;;22.70;90.90;;;;;;5054361;28;20479;-73
2021/06/19 05:44:36;;;;;;;1.70;1.30;;;22.70;90.40;;;;;;5053751;28;20762;-73
2021/06/19 05:47:03;;;;;;;1.50;1.40;;;22.80;90.30;;;;;;5031741;28;20480;-73
2021/06/19 05:49:39;;;;;;;2.00;1.80;;;22.90;89.80;;;;;;5014939;28;20554;-74
2021/06/19 05:52:06;;;;;;;1.80;1.27;;;22.80;89.70;;;;;;5015945;28;20511;-74
2021/06/19 05:54:36;;;;;;;4.37;1.40;;;23.00;89.60;;;;;;5030310;28;20453;-74
2021/06/19 05:57:07;;;;;;;2.00;1.30;;;23.00;89.00;;;;;;5014148;28;20839;-73
2021/06/19 05:59:35;;;;;;;8.97;5.77;;;23.10;88.40;;;;;;5016428;28;20477;-73
2021/06/19 06:02:03;;;;;;;4.30;2.77;;;23.10;88.40;;;;;;5032753;28;20503;-73
2021/06/19 06:04:32;;;;;;;2.20;1.80;;;23.30;86.70;;;;;;5033408;28;20507;-73
2021/06/19 06:07:08;;;;;;;4.17;1.87;;;23.50;85.40;;;;;;5030012;28;21060;-73
2021/06/19 06:09:34;;;;;;;2.97;2.30;;;23.60;85.30;;;;;;5023126;28;20449;-74
2021/06/19 06:12:02;;;;;;;1.37;1.20;;;24.10;83.30;;;;;;5015015;28;20467;-73
2021/06/19 06:14:28;;;;;;;1.53;1.43;;;24.30;80.50;;;;;;5024324;28;20822;-73
2021/06/19 06:16:56;;;;;;;1.23;1.13;;;24.90;77.20;;;;;;5046642;28;20485;-73
2021/06/19 06:19:23;;;;;;;1.10;1.00;;;25.30;74.20;;;;;;5074144;28;20541;-73
2021/06/19 06:21:50;;;;;;;1.50;1.27;;;25.70;71.30;;;;;;5047919;28;20859;-73
2021/06/19 06:24:18;;;;;;;1.57;1.23;;;26.00;69.40;;;;;;5033952;28;20454;-73
2021/06/19 06:26:45;;;;;;;1.60;1.43;;;26.00;69.40;;;;;;5048918;28;20462;-73
2021/06/19 06:29:13;;;;;;;3.53;1.97;;;25.90;69.30;;;;;;5034265;28;21020;-73
2021/06/19 06:31:52;;;;;;;2.17;1.40;;;25.90;69.30;;;;;;5046409;28;20579;-74
2021/06/19 06:34:20;;;;;;;1.33;1.23;;;25.90;68.30;;;;;;5043524;28;20431;-73
2021/06/19 06:36:47;;;;;;;1.27;1.17;;;25.90;69.30;;;;;;5044137;28;20473;-73
2021/06/19 06:39:15;;;;;;;1.50;1.40;;;25.90;70.70;;;;;;5012551;28;20473;-73
2021/06/19 06:41:41;;;;;;;1.20;1.10;;;25.80;68.70;;;;;;5028826;28;20905;-73
2021/06/19 06:44:08;;;;;;;2.00;1.33;;;25.80;69.20;;;;;;5014349;28;20579;-73
2021/06/19 06:46:35;;;;;;;2.03;1.30;;;25.90;67.40;;;;;;5041324;28;21094;-73
2021/06/19 06:49:03;;;;;;;3.70;1.57;;;25.80;67.80;;;;;;5012592;28;20478;-72
2021/06/19 06:51:33;;;;;;;1.97;1.30;;;25.80;67.50;;;;;;5013122;28;21006;-74
2021/06/19 06:54:00;;;;;;;1.47;1.33;;;25.70;68.90;;;;;;5033677;28;20433;-74
2021/06/19 06:56:27;;;;;;;3.40;2.87;;;25.50;68.40;;;;;;5045280;28;20452;-73
2021/06/19 06:58:57;;;;;;;1.33;1.20;;;25.50;69.10;;;;;;5051771;28;20452;-73
2021/06/19 07:01:26;;;;;;;1.53;1.40;;;25.50;68.20;;;;;;5040426;28;20527;-74
2021/06/19 07:03:59;;;;;;;1.20;1.10;;;25.50;68.80;;;;;;5033493;28;20417;-73
2021/06/19 07:06:27;;;;;;;1.80;1.43;;;25.60;68.80;;;;;;5030510;28;20497;-73
2021/06/19 07:08:55;;;;;;;1.40;1.30;;;25.60;69.00;;;;;;5032854;28;20482;-73
2021/06/19 07:11:22;;;;;;;2.30;1.50;;;25.70;68.30;;;;;;5032666;28;20498;-74
2021/06/19 07:13:52;;;;;;;1.60;1.50;;;25.90;67.60;;;;;;5033343;28;20821;-73
2021/06/19 07:16:21;;;;;;;2.70;1.17;;;25.90;66.60;;;;;;5030204;28;21046;-73
2021/06/19 07:18:49;;;;;;;1.43;1.33;;;25.90;67.90;;;;;;5031613;28;20452;-73
2021/06/19 07:21:19;;;;;;;1.87;1.27;;;26.00;65.50;;;;;;5029992;28;20476;-74
2021/06/19 07:23:46;;;;;;;1.67;1.43;;;25.90;66.30;;;;;;5029086;28;20416;-73
2021/06/19 07:26:13;;;;;;;1.60;1.40;;;25.90;64.80;;;;;;5030979;28;20467;-74
2021/06/19 07:28:41;;;;;;;1.33;1.23;;;25.80;65.20;;;;;;5031330;28;20444;-73
2021/06/19 07:31:12;;;;;;;1.10;1.00;;;25.80;66.20;;;;;;5031219;28;20466;-75
2021/06/19 07:33:40;;;;;;;3.50;2.87;;;25.90;64.80;;;;;;5031583;28;20706;-74
2021/06/19 07:36:07;;;;;;;3.30;3.00;;;26.10;65.60;;;;;;5030848;28;20471;-73
2021/06/19 07:38:34;;;;;;;3.70;1.90;;;26.20;64.90;;;;;;5046564;28;20467;-73
2021/06/19 07:41:01;;;;;;;3.87;1.50;;;26.30;63.90;;;;;;5040642;28;20455;-74
2021/06/19 07:43:28;;;;;;;2.97;1.50;;;26.50;64.00;;;;;;5052605;28;20420;-73
2021/06/19 07:45:56;;;;;;;1.33;1.23;;;26.60;64.90;;;;;;5050995;28;20455;-74
2021/06/19 07:48:23;;;;;;;1.30;1.20;;;26.70;63.50;;;;;;5049704;28;20822;-72
2021/06/19 07:50:50;;;;;;;1.60;0.90;;;26.80;61.90;;;;;;5036399;28;20839;-73
2021/06/19 07:53:17;;;;;;;3.80;1.50;;;26.80;61.00;;;;;;5048156;28;20813;-73
2021/06/19 07:55:47;;;;;;;1.30;1.03;;;26.90;60.60;;;;;;5043859;28;20471;-74
2021/06/19 07:58:14;;;;;;;1.40;1.10;;;26.90;61.00;;;;;;5032258;28;20491;-73
2021/06/19 08:00:43;;;;;;;1.27;1.13;;;27.00;60.50;;;;;;5031569;28;20555;-73
2021/06/19 08:03:10;;;;;;;3.40;1.80;;;27.00;59.40;;;;;;5027266;28;21052;-73
2021/06/19 08:05:37;;;;;;;2.50;1.03;;;27.00;59.20;;;;;;5031808;28;20463;-73
2021/06/19 08:08:05;;;;;;;1.17;1.00;;;27.10;59.70;;;;;;5026774;28;20464;-73
2021/06/19 08:10:32;;;;;;;1.43;1.33;;;27.10;60.90;;;;;;5031451;28;20455;-73
2021/06/19 08:12:59;;;;;;;2.80;1.43;;;27.10;60.10;;;;;;5030943;28;20989;-73
2021/06/19 08:15:29;;;;;;;2.27;1.87;;;27.20;59.70;;;;;;5031668;28;20484;-73
2021/06/19 08:17:56;;;;;;;1.60;1.30;;;27.20;59.00;;;;;;5030484;28;20562;-73
2021/06/19 08:20:33;;;;;;;1.53;1.13;;;27.30;59.50;;;;;;5015134;28;20458;-74
2021/06/19 08:23:01;;;;;;;1.77;1.53;;;27.50;59.00;;;;;;5030850;28;20511;-73
2021/06/19 08:25:29;;;;;;;2.43;1.43;;;27.50;59.20;;;;;;5031559;28;20464;-74
2021/06/19 08:27:56;;;;;;;1.67;0.93;;;27.70;57.90;;;;;;5036809;28;20544;-72
2021/06/19 08:30:23;;;;;;;1.53;1.43;;;27.70;56.30;;;;;;5001120;28;20475;-73
2021/06/19 08:32:50;;;;;;;1.30;1.20;;;27.70;56.30;;;;;;5012151;28;20540;-74
2021/06/19 08:35:17;;;;;;;1.10;1.00;;;27.80;57.80;;;;;;5065960;28;20797;-73
2021/06/19 08:37:44;;;;;;;1.30;1.20;;;27.90;56.20;;;;;;5037292;28;20463;-72
2021/06/19 08:40:12;;;;;;;1.57;1.47;;;27.90;55.60;;;;;;5031391;28;20430;-73
2021/06/19 08:42:40;;;;;;;4.80;2.27;;;28.00;56.60;;;;;;5030620;28;21046;-73
2021/06/19 08:45:10;;;;;;;2.33;2.13;;;28.10;57.00;;;;;;5006039;28;20891;-73
2021/06/19 08:47:37;;;;;;;2.20;1.90;;;28.20;56.10;;;;;;5031247;28;20416;-73
2021/06/19 08:50:07;;;;;;;4.50;2.80;;;28.20;56.10;;;;;;5030059;28;20432;-73
2021/06/19 08:52:35;;;;;;;2.43;2.23;;;28.30;56.10;;;;;;5038926;28;20470;-74
2021/06/19 08:55:08;;;;;;;2.07;1.37;;;28.40;56.20;;;;;;5024694;28;20966;-73
2021/06/19 08:57:38;;;;;;;5.23;1.93;;;28.50;57.30;;;;;;5030118;28;20440;-72
2021/06/19 09:00:07;;;;;;;1.93;1.50;;;28.60;56.70;;;;;;5028320;28;20447;-72
2021/06/19 09:02:35;;;;;;;2.03;1.30;;;28.70;55.40;;;;;;5033770;28;20499;-73
2021/06/19 09:05:13;;;;;;;1.20;1.10;;;28.70;55.60;;;;;;5031206;28;20866;-73
2021/06/19 09:07:45;;;;;;;1.83;1.30;;;28.90;54.00;;;;;;5028795;28;20454;-72
2021/06/19 09:10:29;;;;;;;2.23;1.23;;;28.90;53.50;;;;;;5024237;28;20498;-74
2021/06/19 09:13:18;;;;;;;1.30;1.20;;;29.00;53.80;;;;;;5103471;22;20444;-77
2021/06/19 09:15:54;;;;;;;1.50;1.03;;;29.00;52.50;;;;;;5019685;28;20475;-74
2021/06/19 09:18:23;;;;;;;1.30;1.20;;;29.10;53.40;;;;;;5021965;28;20512;-74
2021/06/19 09:21:01;;;;;;;1.50;1.40;;;29.20;51.80;;;;;;5013905;28;20990;-74
2021/06/19 09:23:35;;;;;;;1.70;1.43;;;29.30;50.30;;;;;;5014451;28;20559;-74
2021/06/19 09:26:08;;;;;;;1.83;1.50;;;29.30;52.70;;;;;;5020734;28;20465;-74
2021/06/19 09:29:01;;;;;;;2.13;1.40;;;29.30;52.80;;;;;;5011296;28;21050;-74
2021/06/19 09:31:38;;;;;;;1.60;1.50;;;29.30;53.20;;;;;;5007575;28;20469;-74
2021/06/19 09:34:07;;;;;;;1.40;1.30;;;29.50;52.00;;;;;;5008485;28;20523;-74
2021/06/19 09:36:41;;;;;;;2.80;1.60;;;29.60;49.90;;;;;;5010660;28;20461;-74
2021/06/19 09:39:09;;;;;;;2.80;1.40;;;29.60;49.70;;;;;;5025881;28;20441;-74
2021/06/19 09:41:45;;;;;;;1.50;1.40;;;29.70;52.90;;;;;;5006407;28;20495;-74
2021/06/19 09:44:12;;;;;;;2.03;1.87;;;29.70;51.70;;;;;;5009837;28;20871;-74
2021/06/19 09:46:55;;;;;;;3.37;2.50;;;29.80;51.80;;;;;;5004115;28;20484;-74
2021/06/19 09:49:32;;;;;;;2.97;1.63;;;29.80;52.70;;;;;;5029583;28;20810;-74
2021/06/19 09:52:00;;;;;;;1.50;1.40;;;29.90;51.00;;;;;;5013746;28;20562;-74
2021/06/19 09:54:30;;;;;;;1.67;1.53;;;29.90;50.50;;;;;;4995317;28;20520;-74
2021/06/19 09:57:01;;;;;;;1.70;1.33;;;30.00;48.90;;;;;;4995430;28;20512;-74
2021/06/19 09:59:36;;;;;;;1.83;1.63;;;30.00;48.10;;;;;;5014348;28;20456;-74
2021/06/19 10:02:24;;;;;;;2.27;1.67;;;30.00;49.90;;;;;;5026733;28;20472;-74
2021/06/19 10:04:55;;;;;;;2.33;2.10;;;30.10;50.00;;;;;;5010188;28;20438;-73
2021/06/19 10:07:28;;;;;;;3.60;1.80;;;30.30;47.90;;;;;;5027479;28;20833;-74
2021/06/19 10:09:57;;;;;;;1.60;1.50;;;30.30;47.70;;;;;;5014683;28;20441;-74
2021/06/19 10:12:27;;;;;;;2.60;2.10;;;30.30;47.00;;;;;;5028637;28;20974;-74
2021/06/19 10:15:05;;;;;;;1.70;1.60;;;30.20;49.60;;;;;;5013258;28;20449;-74
2021/06/19 10:17:40;;;;;;;2.00;1.90;;;30.20;49.90;;;;;;5013670;28;20946;-74
2021/06/19 10:20:13;;;;;;;1.60;1.47;;;30.20;50.10;;;;;;5013016;28;20442;-74
2021/06/19 10:22:42;;;;;;;2.10;1.60;;;30.20;50.40;;;;;;5013638;28;20797;-74
2021/06/19 10:25:14;;;;;;;4.10;1.90;;;30.30;49.30;;;;;;5005537;28;20455;-74
2021/06/19 10:27:47;;;;;;;1.90;1.80;;;30.40;50.50;;;;;;5032615;28;20422;-74
2021/06/19 10:30:15;;;;;;;2.03;1.50;;;30.40;50.10;;;;;;5017447;28;20790;-74
2021/06/19 10:33:22;;;;;;;7.63;2.37;;;30.30;48.90;;;;;;5012763;28;20884;-74
2021/06/19 10:35:51;;;;;;;1.53;1.43;;;30.30;50.00;;;;;;5029637;28;20464;-74
2021/06/19 10:38:19;;;;;;;5.33;2.10;;;30.40;49.90;;;;;;5016546;28;20500;-74
2021/06/19 10:41:00;;;;;;;2.10;1.70;;;30.30;50.80;;;;;;5030258;28;20471;-74
2021/06/19 10:43:29;;;;;;;1.90;1.80;;;30.40;50.80;;;;;;5031246;28;20460;-74
2021/06/19 10:46:20;;;;;;;2.03;1.70;;;30.40;49.90;;;;;;5027114;28;21057;-74
2021/06/19 10:48:47;;;;;;;2.67;1.70;;;30.20;50.20;;;;;;4994152;28;20445;-74
2021/06/19 10:51:18;;;;;;;2.33;1.50;;;30.30;50.00;;;;;;5028726;28;20456;-74
2021/06/19 10:54:17;;;;;;;1.80;1.63;;;30.40;49.30;;;;;;5016770;28;20523;-74
2021/06/19 10:56:52;;;;;;;2.13;1.93;;;30.60;49.00;;;;;;4995212;28;20500;-74
2021/06/19 10:59:27;;;;;;;2.50;2.30;;;30.90;48.10;;;;;;5008309;28;20460;-75
2021/06/19 11:01:58;;;;;;;2.30;1.50;;;31.10;48.10;;;;;;5015889;28;20977;-74
2021/06/19 11:04:40;;;;;;;2.20;1.87;;;31.20;45.60;;;;;;5016672;28;20441;-75
2021/06/19 11:07:10;;;;;;;2.83;1.67;;;31.20;47.30;;;;;;5013209;28;20484;-75
2021/06/19 11:09:38;;;;;;;3.47;1.70;;;31.10;47.90;;;;;;5012331;28;20445;-75
2021/06/19 11:12:10;;;;;;;1.70;1.60;;;31.00;46.80;;;;;;5024744;28;20488;-75
2021/06/19 11:14:44;;;;;;;1.77;1.67;;;30.90;47.10;;;;;;5027250;28;20815;-74
2021/06/19 11:17:14;;;;;;;3.00;1.80;;;30.80;47.20;;;;;;5017236;28;20462;-75
2021/06/19 11:19:47;;;;;;;3.80;1.80;;;30.70;47.60;;;;;;5026505;28;20460;-74
2021/06/19 11:22:24;;;;;;;2.23;2.03;;;30.60;48.10;;;;;;4994419;28;20974;-74
2021/06/19 11:25:14;;;;;;;2.40;1.50;;;30.40;49.80;;;;;;5023530;28;20463;-75
2021/06/19 11:27:55;;;;;;;2.57;1.60;;;30.30;48.80;;;;;;5011270;28;20477;-75
2021/06/19 11:30:34;;;;;;;4.60;1.87;;;30.20;49.00;;;;;;5012597;28;20460;-74
2021/06/19 11:35:56;;;;;;;3.30;1.90;;;30.30;49.80;;;;;;5027382;28;20495;-75
2021/06/19 11:38:23;;;;;;;5.20;2.00;;;30.30;48.90;;;;;;5012201;28;20468;-75
2021/06/19 11:40:50;;;;;;;1.83;1.73;;;30.30;49.60;;;;;;5012121;28;20456;-75
2021/06/19 11:43:29;;;;;;;3.63;1.63;;;30.30;49.70;;;;;;5011646;28;20901;-75
2021/06/19 11:46:00;;;;;;;2.83;2.20;;;30.30;49.00;;;;;;5010171;28;21048;-75
2021/06/19 11:48:28;;;;;;;1.90;1.70;;;30.20;50.20;;;;;;5012039;28;20980;-75
2021/06/19 11:51:06;;;;;;;3.23;1.83;;;30.30;48.20;;;;;;5010580;28;20465;-75
2021/06/19 11:53:35;;;;;;;3.13;1.90;;;30.40;50.40;;;;;;5012368;28;20502;-75
2021/06/19 11:56:25;;;;;;;1.93;1.83;;;30.60;46.70;;;;;;5011991;28;20587;-74
2021/06/19 11:59:01;;;;;;;3.90;2.10;;;30.60;47.60;;;;;;5010451;28;20463;-74
2021/06/19 12:01:38;;;;;;;3.60;1.70;;;30.60;46.30;;;;;;5009706;28;20471;-74
2021/06/19 12:04:10;;;;;;;3.50;1.70;;;30.60;48.20;;;;;;5011341;28;20464;-75
2021/06/19 12:06:52;;;;;;;3.80;1.80;;;30.60;49.10;;;;;;5009944;28;20592;-75
2021/06/19 12:09:26;;;;;;;2.80;1.90;;;30.50;51.60;;;;;;5026448;28;20842;-75
2021/06/19 12:12:15;;;;;;;4.50;2.13;;;30.50;52.40;;;;;;5011220;28;20543;-75
2021/06/19 12:14:42;;;;;;;3.87;2.07;;;30.50;49.30;;;;;;5011702;28;20452;-75
2021/06/19 12:17:13;;;;;;;2.70;2.20;;;30.50;50.00;;;;;;5010853;28;20465;-74
2021/06/19 12:19:44;;;;;;;2.77;2.57;;;30.50;50.80;;;;;;5010993;28;20488;-75
2021/06/19 12:22:16;;;;;;;2.13;1.60;;;30.70;50.00;;;;;;5010850;28;20481;-75
2021/06/19 12:24:47;;;;;;;3.03;2.20;;;30.80;49.50;;;;;;5010869;28;20444;-75
2021/06/19 12:27:15;;;;;;;4.90;2.37;;;30.80;50.00;;;;;;5010811;28;20465;-75
2021/06/19 12:29:44;;;;;;;4.57;2.13;;;31.00;49.70;;;;;;5010228;28;20468;-75
2021/06/19 12:32:23;;;;;;;5.20;2.07;;;31.00;49.60;;;;;;5010960;28;20565;-74
2021/06/19 12:34:52;;;;;;;3.20;2.30;;;31.10;49.20;;;;;;5010226;28;20437;-74
2021/06/19 12:37:31;;;;;;;4.10;2.50;;;31.20;47.40;;;;;;5010658;28;20511;-74
2021/06/19 12:40:00;;;;;;;6.83;3.13;;;31.20;49.90;;;;;;5009656;28;20958;-74
2021/06/19 12:42:46;;;;;;;3.73;2.30;;;31.20;48.90;;;;;;5010401;28;20516;-74
2021/06/19 12:45:21;;;;;;;2.53;2.33;;;31.10;46.70;;;;;;5011078;28;20443;-76
2021/06/19 12:47:51;;;;;;;4.37;2.40;;;30.90;48.70;;;;;;5016227;28;20455;-74
2021/06/19 12:50:38;;;;;;;3.97;2.10;;;30.80;48.90;;;;;;5016440;28;20428;-74
2021/06/19 12:53:12;;;;;;;2.90;2.27;;;30.70;50.50;;;;;;5015044;28;20449;-74
2021/06/19 12:55:53;;;;;;;3.03;2.37;;;30.60;51.60;;;;;;5019855;28;20470;-75
2021/06/19 12:58:22;;;;;;;7.40;2.70;;;30.60;51.30;;;;;;5000831;28;20453;-74
2021/06/19 13:00:55;;;;;;;7.10;2.30;;;30.50;51.60;;;;;;5014716;28;20504;-75
2021/06/19 13:03:48;;;;;;;4.97;2.63;;;30.50;52.40;;;;;;5011391;28;20883;-74
2021/06/19 13:06:36;;;;;;;2.70;1.83;;;30.60;50.90;;;;;;4998291;28;20497;-74
2021/06/19 13:09:07;;;;;;;3.80;2.40;;;30.60;52.70;;;;;;5046083;28;20851;-75